Time;durP1;ratioP1;P1;durP2;ratioP2;P2;SDS_P1;SDS_P2;PMS_P1;PMS_P2;Temp;Humidity;BMP_temperature;BMP_pressure;BME280_temperature;BME280_humidity;BME280_pressure;Samples;Min_cycle;Max_cycle;Signal;HPM_P1;HPM_P2
2023/12/18 00:00:00;;;;;;;8.50;7.10;;;;;;;-147.86;100.00;46104.55;105192;1261;72094;-53
2023/12/18 00:02:27;;;;;;;10.00;7.40;;;;;;;-147.86;100.00;46104.94;105211;1265;64703;-52
2023/12/18 00:04:54;;;;;;;9.60;7.40;;;;;;;-147.86;100.00;46101.81;105102;1261;204336;-50
2023/12/18 00:07:21;;;;;;;10.10;7.80;;;;;;;-147.86;100.00;46103.76;105528;1263;61876;-56
2023/12/18 00:09:48;;;;;;;8.30;6.90;;;;;;;-147.86;100.00;46103.38;105579;1260;60172;-53
2023/12/18 00:12:15;;;;;;;7.70;6.80;;;;;;;-147.86;100.00;46101.41;105584;1263;72246;-52
2023/12/18 00:14:41;;;;;;;10.40;6.80;;;;;;;-147.86;100.00;46101.80;105508;1263;64598;-53
2023/12/18 00:17:08;;;;;;;8.00;7.00;;;;;;;-147.86;100.00;46101.02;105499;1261;72623;-54
2023/12/18 00:19:35;;;;;;;10.00;7.20;;;;;;;-147.86;100.00;46099.06;105586;1263;60292;-52
2023/12/18 00:22:02;;;;;;;9.10;7.30;;;;;;;-147.86;100.00;46099.85;105634;1259;60123;-51
2023/12/18 00:24:29;;;;;;;11.00;8.40;;;;;;;-147.86;100.00;46102.20;105683;1261;72982;-52
2023/12/18 00:26:56;;;;;;;10.20;7.70;;;;;;;-147.86;100.00;46102.98;105561;1263;64563;-53
2023/12/18 00:29:23;;;;;;;11.10;8.00;;;;;;;-147.86;100.00;46099.45;105539;1260;72605;-55
2023/12/18 00:31:50;;;;;;;9.30;7.20;;;;;;;-147.86;100.00;46100.24;105503;1263;61868;-53
2023/12/18 00:34:17;;;;;;;9.40;7.40;;;;;;;-147.86;100.00;46099.45;105505;1261;60033;-48
2023/12/18 00:36:44;;;;;;;8.60;7.70;;;;;;;-147.86;100.00;46101.42;105555;1263;72088;-51
2023/12/18 00:39:11;;;;;;;9.80;7.60;;;;;;;-147.86;100.00;46101.41;105518;1263;63469;-51
2023/12/18 00:41:38;;;;;;;11.10;7.60;;;;;;;-147.86;100.00;46099.85;105551;1263;72578;-54
2023/12/18 00:44:05;;;;;;;12.70;8.10;;;;;;;-147.86;100.00;46099.06;105565;1262;61854;-50
2023/12/18 00:46:32;;;;;;;9.90;7.20;;;;;;;-147.86;100.00;46102.98;105547;1261;60174;-53
2023/12/18 00:48:59;;;;;;;8.90;6.90;;;;;;;-147.86;100.00;46100.24;105509;1261;73175;-53
2023/12/18 00:51:26;;;;;;;11.00;7.60;;;;;;;-147.86;100.00;46100.24;105301;1264;64656;-48
2023/12/18 00:53:53;;;;;;;9.70;7.40;;;;;;;-147.86;100.00;46103.38;105329;1261;72804;-55
2023/12/18 00:56:20;;;;;;;11.40;7.00;;;;;;;-147.86;100.00;46101.41;105304;1265;61980;-53
2023/12/18 00:58:47;;;;;;;8.90;7.20;;;;;;;-147.86;100.00;46099.06;105361;1260;60908;-56
2023/12/18 01:01:14;;;;;;;7.80;6.90;;;;;;;-147.86;100.00;46099.06;105281;1260;73074;-51
2023/12/18 01:03:41;;;;;;;9.80;7.20;;;;;;;-147.86;100.00;46101.41;105292;1265;64651;-50
2023/12/18 01:06:08;;;;;;;9.50;7.40;;;;;;;-147.86;100.00;46102.59;105282;1261;72706;-48
2023/12/18 01:08:35;;;;;;;8.30;6.30;;;;;;;-147.86;100.00;46099.45;105254;1266;61850;-53
2023/12/18 01:11:01;;;;;;;8.30;6.80;;;;;;;-147.86;100.00;46099.85;105267;1260;60630;-54
2023/12/18 01:13:28;;;;;;;9.80;6.90;;;;;;;-147.86;100.00;46099.45;105205;1266;73081;-50
2023/12/18 01:15:56;;;;;;;10.40;8.10;;;;;;;-147.86;100.00;46100.63;105237;1265;64432;-55
2023/12/18 01:18:23;;;;;;;9.70;7.10;;;;;;;-147.86;100.00;46098.67;105245;1261;72616;-50
2023/12/18 01:20:50;;;;;;;8.90;7.00;;;;;;;-147.86;100.00;46099.06;105270;1266;62334;-52
2023/12/18 01:23:17;;;;;;;9.80;7.40;;;;;;;-147.86;100.00;46099.85;105242;1260;60044;-50
2023/12/18 01:25:44;;;;;;;10.00;7.30;;;;;;;-147.86;100.00;46100.24;105245;1261;73154;-52
2023/12/18 01:28:11;;;;;;;11.00;7.60;;;;;;;-147.86;100.00;46101.41;105212;1265;64579;-49
2023/12/18 01:30:38;;;;;;;10.30;7.20;;;;;;;-147.86;100.00;46101.02;105246;1260;72657;-53
2023/12/18 01:33:05;;;;;;;9.40;7.10;;;;;;;-147.86;100.00;46098.28;105225;1266;62051;-52
2023/12/18 01:35:33;;;;;;;12.00;8.30;;;;;;;-147.86;100.00;46100.24;105253;1260;60200;-56
2023/12/18 01:38:01;;;;;;;10.80;8.10;;;;;;;-147.86;100.00;46101.02;105263;1264;73020;-50
2023/12/18 01:40:27;;;;;;;11.80;8.40;;;;;;;-147.86;100.00;46099.84;105219;1264;64681;-48
2023/12/18 01:42:54;;;;;;;9.10;7.90;;;;;;;-147.86;100.00;46099.46;105200;1260;72723;-55
2023/12/18 01:45:21;;;;;;;11.60;8.40;;;;;;;-147.86;100.00;46097.89;105269;1266;61781;-51
2023/12/18 01:47:48;;;;;;;10.10;7.90;;;;;;;-147.86;100.00;46101.02;105298;1260;60642;-54
2023/12/18 01:50:15;;;;;;;12.70;8.50;;;;;;;-147.86;100.00;46101.42;105218;1264;72987;-49
2023/12/18 01:52:42;;;;;;;12.00;8.40;;;;;;;-147.86;100.00;46102.59;105216;1265;64665;-55
2023/12/18 01:55:09;;;;;;;11.00;8.60;;;;;;;-147.86;100.00;46100.63;105236;1260;72612;-52
2023/12/18 01:57:36;;;;;;;11.10;8.30;;;;;;;-147.86;100.00;46099.85;105271;1265;61970;-50
2023/12/18 02:00:04;;;;;;;11.80;7.90;;;;;;;-147.86;100.00;46101.80;105261;1260;60153;-52
2023/12/18 02:02:31;;;;;;;12.20;8.50;;;;;;;-147.86;100.00;46099.07;105330;1266;73086;-49
2023/12/18 02:04:58;;;;;;;11.80;9.00;;;;;;;-147.86;100.00;46102.20;105250;1264;64441;-54
2023/12/18 02:07:25;;;;;;;11.00;8.50;;;;;;;-147.86;100.00;46102.59;105280;1260;72664;-54
2023/12/18 02:09:52;;;;;;;12.50;9.00;;;;;;;-147.86;100.00;46101.41;105261;1266;61925;-52
2023/12/18 02:12:19;;;;;;;12.20;8.60;;;;;;;-147.86;100.00;46100.24;105255;1261;60270;-54
2023/12/18 02:14:46;;;;;;;13.40;8.80;;;;;;;-147.86;100.00;46099.46;105228;1261;73002;-51
2023/12/18 02:17:13;;;;;;;11.50;8.80;;;;;;;-147.86;100.00;46101.02;105281;1266;64560;-53
2023/12/18 02:19:40;;;;;;;12.00;8.50;;;;;;;-147.86;100.00;46100.24;105246;1261;72662;-47
2023/12/18 02:22:07;;;;;;;11.60;8.50;;;;;;;-147.86;100.00;46101.41;105253;1265;61965;-50
2023/12/18 02:24:33;;;;;;;12.90;9.00;;;;;;;-147.86;100.00;46102.59;105242;1260;60290;-52
2023/12/18 02:27:02;;;;;;;13.70;8.90;;;;;;;-147.86;100.00;46102.98;105244;1260;72958;-52
2023/12/18 02:29:29;;;;;;;12.40;8.80;;;;;;;-147.86;100.00;46101.80;105237;1266;64799;-53
2023/12/18 02:31:57;;;;;;;11.30;8.50;;;;;;;-147.86;100.00;46101.80;105238;1260;72530;-52
2023/12/18 02:34:24;;;;;;;14.20;9.40;;;;;;;-147.86;100.00;46101.41;105225;1265;61964;-52
2023/12/18 02:36:51;;;;;;;11.10;8.60;;;;;;;-147.86;100.00;46100.63;104993;1260;60271;-54
2023/12/18 02:39:18;;;;;;;14.50;9.10;;;;;;;-147.86;100.00;46103.38;105074;1266;72900;-54
2023/12/18 02:41:45;;;;;;;14.00;9.30;;;;;;;-147.86;100.00;46101.41;105254;1266;63682;-53
2023/12/18 02:44:12;;;;;;;14.30;8.40;;;;;;;-147.86;100.00;46101.02;105222;1266;72522;-55
2023/12/18 02:46:38;;;;;;;14.10;8.00;;;;;;;-147.86;100.00;46099.06;105238;1265;61911;-56
2023/12/18 02:49:05;;;;;;;11.00;8.40;;;;;;;-147.86;100.00;46101.02;105294;1260;60134;-56
2023/12/18 02:51:32;;;;;;;11.90;8.40;;;;;;;-147.86;100.00;46099.85;105271;1266;72878;-52
2023/12/18 02:53:59;;;;;;;12.60;8.90;;;;;;;-147.86;100.00;46102.20;105229;1265;64757;-50
2023/12/18 02:56:26;;;;;;;12.00;8.70;;;;;;;-147.86;100.00;46102.98;105210;1260;72609;-55
2023/12/18 02:58:53;;;;;;;13.60;8.50;;;;;;;-147.86;100.00;46101.41;105622;1257;61980;-52
2023/12/18 03:01:20;;;;;;;11.20;8.80;;;;;;;-147.86;100.00;46105.73;105617;1257;60382;-53
2023/12/18 03:03:47;;;;;;;18.90;8.70;;;;;;;-147.86;100.00;46101.80;105615;1263;73072;-49
2023/12/18 03:06:14;;;;;;;13.00;8.40;;;;;;;-147.86;100.00;46101.42;105680;1257;64580;-55
2023/12/18 03:08:41;;;;;;;10.80;8.60;;;;;;;-147.86;100.00;46101.80;105627;1257;72709;-52
2023/12/18 03:11:08;;;;;;;12.70;8.60;;;;;;;-147.86;100.00;46099.46;105618;1257;61651;-54
2023/12/18 03:13:35;;;;;;;12.60;8.50;;;;;;;-147.86;100.00;46102.20;105632;1258;60302;-52
2023/12/18 03:16:02;;;;;;;13.00;8.70;;;;;;;-147.86;100.00;46102.98;105633;1257;73072;-52
2023/12/18 03:18:29;;;;;;;12.00;8.50;;;;;;;-147.86;100.00;46103.37;105641;1261;64536;-50
2023/12/18 03:20:56;;;;;;;13.60;9.50;;;;;;;-147.86;100.00;46102.20;105539;1261;71658;-48
2023/12/18 03:23:23;;;;;;;13.20;8.90;;;;;;;-147.86;100.00;46104.16;105515;1263;62001;-53
2023/12/18 03:25:50;;;;;;;13.20;8.70;;;;;;;-147.86;100.00;46102.20;105581;1257;60319;-49
2023/12/18 03:28:18;;;;;;;13.30;9.40;;;;;;;-147.86;100.00;46101.02;105541;1263;73023;-50
2023/12/18 03:30:45;;;;;;;12.50;8.70;;;;;;;-147.86;100.00;46103.77;105553;1262;64595;-52
2023/12/18 03:33:12;;;;;;;13.60;8.70;;;;;;;-147.86;100.00;46101.02;105659;1260;72723;-49
2023/12/18 03:35:39;;;;;;;12.10;8.40;;;;;;;-147.86;100.00;46100.24;105556;1262;61838;-55
2023/12/18 03:38:06;;;;;;;12.00;8.20;;;;;;;-147.86;100.00;46102.59;105537;1261;60438;-46
2023/12/18 03:40:34;;;;;;;12.70;8.60;;;;;;;-147.86;100.00;46102.59;105561;1258;72897;-48
2023/12/18 03:43:01;;;;;;;11.50;8.20;;;;;;;-147.86;100.00;46100.24;105617;1263;64518;-52
2023/12/18 03:45:28;;;;;;;11.50;8.10;;;;;;;-147.86;100.00;46104.55;105501;1262;72505;-46
2023/12/18 03:47:55;;;;;;;11.90;9.00;;;;;;;-147.86;100.00;46104.55;105581;1263;62003;-55
2023/12/18 03:50:22;;;;;;;11.10;8.20;;;;;;;-147.86;100.00;46102.20;105581;1258;60362;-55
2023/12/18 03:52:49;;;;;;;13.80;8.80;;;;;;;-147.86;100.00;46102.59;105502;1263;73023;-51
2023/12/18 03:55:16;;;;;;;12.80;8.40;;;;;;;-147.86;100.00;46101.41;105618;1261;64729;-51
2023/12/18 03:57:43;;;;;;;13.40;8.30;;;;;;;-147.86;100.00;46106.11;105531;1260;72682;-52
2023/12/18 04:00:12;;;;;;;12.10;8.30;;;;;;;-147.86;100.00;46102.98;105581;1261;61886;-51
2023/12/18 04:02:39;;;;;;;11.70;8.30;;;;;;;-147.86;100.00;46103.77;105593;1258;60422;-52
2023/12/18 04:05:06;;;;;;;10.30;7.80;;;;;;;-147.86;100.00;46101.80;105498;1259;73676;-49
2023/12/18 04:07:33;;;;;;;11.10;8.10;;;;;;;-147.86;100.00;46101.02;105610;1261;64633;-50
2023/12/18 04:10:00;;;;;;;14.30;8.00;;;;;;;-147.86;100.00;46104.16;105561;1257;72729;-55
2023/12/18 04:12:27;;;;;;;11.80;7.50;;;;;;;-147.86;100.00;46101.02;105584;1263;61915;-54
2023/12/18 04:14:54;;;;;;;12.10;8.80;;;;;;;-147.86;100.00;46103.38;105565;1260;60543;-56
2023/12/18 04:17:21;;;;;;;12.70;8.50;;;;;;;-147.86;100.00;46103.37;105495;1263;73796;-56
2023/12/18 04:19:48;;;;;;;12.60;7.80;;;;;;;-147.86;100.00;46102.98;105560;1262;64689;-54
2023/12/18 04:22:15;;;;;;;10.60;7.80;;;;;;;-147.86;100.00;46101.80;105591;1257;72750;-57
2023/12/18 04:24:42;;;;;;;11.90;7.60;;;;;;;-147.86;100.00;46102.20;105523;1263;60867;-50
2023/12/18 04:27:09;;;;;;;10.90;7.70;;;;;;;-147.86;100.00;46101.80;105559;1258;60543;-51
2023/12/18 04:29:37;;;;;;;8.70;7.20;;;;;;;-147.86;100.00;46102.59;105540;1263;73869;-52
2023/12/18 04:32:05;;;;;;;9.60;6.70;;;;;;;-147.86;100.00;46101.80;105539;1263;64518;-48
2023/12/18 04:34:32;;;;;;;8.80;7.00;;;;;;;-147.86;100.00;46102.20;105543;1257;71195;-51
2023/12/18 04:36:59;;;;;;;8.80;7.50;;;;;;;-147.86;100.00;46102.59;105617;1261;62022;-50
2023/12/18 04:39:29;;;;;;;10.10;7.20;;;;;;;-147.86;100.00;46104.55;105779;1262;60405;-55
2023/12/18 04:41:56;;;;;;;8.30;6.60;;;;;;;-147.86;100.00;46103.77;105596;1261;73750;-49
2023/12/18 04:44:23;;;;;;;9.10;7.30;;;;;;;-147.86;100.00;46103.38;105631;1262;64622;-51
2023/12/18 04:46:50;;;;;;;9.50;6.60;;;;;;;-147.86;100.00;46102.98;105625;1261;72627;-52
2023/12/18 04:49:17;;;;;;;8.60;6.00;;;;;;;-147.86;100.00;46104.55;105545;1263;61931;-50
2023/12/18 04:51:44;;;;;;;9.20;6.40;;;;;;;-147.86;100.00;46103.76;105645;1257;60408;-52
2023/12/18 04:54:11;;;;;;;8.70;7.00;;;;;;;-147.86;100.00;46103.77;105634;1263;73752;-54
2023/12/18 04:56:38;;;;;;;9.20;7.00;;;;;;;-147.86;100.00;46104.16;105537;1261;64376;-54
2023/12/18 04:59:04;;;;;;;8.30;6.10;;;;;;;-147.86;100.00;46102.59;105577;1257;72669;-52
2023/12/18 05:01:31;;;;;;;8.60;6.10;;;;;;;-147.86;100.00;46101.02;105627;1261;62059;-51
2023/12/18 05:03:58;;;;;;;9.30;7.00;;;;;;;-147.86;100.00;46102.98;105649;1257;60594;-48
2023/12/18 05:06:26;;;;;;;9.80;6.90;;;;;;;-147.86;100.00;46102.98;105601;1260;73788;-55
2023/12/18 05:08:54;;;;;;;7.00;5.60;;;;;;;-147.86;100.00;46102.59;105615;1260;64699;-54
2023/12/18 05:11:22;;;;;;;6.50;5.70;;;;;;;-147.86;100.00;46102.98;105617;1257;72446;-53
2023/12/18 05:13:49;;;;;;;8.00;6.20;;;;;;;-147.86;100.00;46103.38;105622;1262;61913;-49
2023/12/18 05:16:16;;;;;;;6.80;6.10;;;;;;;-147.86;100.00;46103.77;105622;1258;60568;-51
2023/12/18 05:18:43;;;;;;;7.00;6.00;;;;;;;-147.86;100.00;46102.20;105628;1260;74083;-54
2023/12/18 05:21:11;;;;;;;5.80;5.20;;;;;;;-147.86;100.00;46104.16;105607;1260;64832;-53
2023/12/18 05:23:38;;;;;;;6.00;5.40;;;;;;;-147.86;100.00;46104.16;105601;1263;72611;-55
2023/12/18 05:26:05;;;;;;;7.70;5.80;;;;;;;-147.86;100.00;46106.12;105595;1263;62119;-52
2023/12/18 05:28:32;;;;;;;8.90;6.30;;;;;;;-147.86;100.00;46102.98;105587;1256;60552;-55
2023/12/18 05:30:59;;;;;;;7.10;5.80;;;;;;;-147.86;100.00;46103.38;105586;1263;73716;-50
2023/12/18 05:33:26;;;;;;;7.90;5.90;;;;;;;-147.86;100.00;46100.63;105653;1260;64570;-52
2023/12/18 05:35:53;;;;;;;5.70;5.20;;;;;;;-147.86;100.00;46104.55;105624;1260;72589;-52
2023/12/18 05:38:20;;;;;;;5.80;5.30;;;;;;;-147.86;100.00;46103.77;105620;1260;61949;-55
2023/12/18 05:40:47;;;;;;;6.90;5.00;;;;;;;-147.86;100.00;46105.33;105644;1260;60469;-51
2023/12/18 05:43:13;;;;;;;6.80;4.80;;;;;;;-147.86;100.00;46102.59;105612;1258;73974;-52
2023/12/18 05:45:40;;;;;;;6.30;5.00;;;;;;;-147.86;100.00;46104.16;105596;1260;65158;-50
2023/12/18 05:48:07;;;;;;;6.70;5.90;;;;;;;-147.86;100.00;46102.98;105617;1260;72675;-48
2023/12/18 05:50:34;;;;;;;6.20;4.80;;;;;;;-147.86;100.00;46101.41;105640;1260;61942;-54
2023/12/18 05:53:01;;;;;;;5.70;5.10;;;;;;;-147.86;100.00;46102.20;105753;1258;61400;-55
2023/12/18 05:55:28;;;;;;;5.50;5.00;;;;;;;-147.86;100.00;46102.98;105585;1260;73837;-52
2023/12/18 05:57:55;;;;;;;5.10;4.40;;;;;;;-147.86;100.00;46101.80;105638;1260;63698;-51
2023/12/18 06:00:22;;;;;;;7.20;4.60;;;;;;;-147.86;100.00;46101.41;105616;1260;71620;-50
2023/12/18 06:02:49;;;;;;;5.50;5.00;;;;;;;-147.86;100.00;46102.59;105624;1260;61941;-52
2023/12/18 06:05:16;;;;;;;5.00;4.50;;;;;;;-147.86;100.00;46101.02;105657;1259;60442;-52
2023/12/18 06:07:43;;;;;;;6.20;4.60;;;;;;;-147.86;100.00;46102.20;105601;1259;73788;-49
2023/12/18 06:10:10;;;;;;;5.00;4.00;;;;;;;-147.86;100.00;46101.80;105660;1260;64639;-53
2023/12/18 06:12:37;;;;;;;5.10;4.60;;;;;;;-147.86;100.00;46103.76;105656;1260;72470;-51
2023/12/18 06:15:05;;;;;;;4.70;4.30;;;;;;;-147.86;100.00;46101.80;105624;1260;61951;-51
2023/12/18 06:17:32;;;;;;;5.10;4.60;;;;;;;-147.86;100.00;46102.98;105723;1257;60398;-54
2023/12/18 06:19:59;;;;;;;5.00;4.40;;;;;;;-147.86;100.00;46099.84;105609;1260;73921;-54
2023/12/18 06:22:26;;;;;;;4.80;4.20;;;;;;;-147.86;100.00;46101.41;105608;1260;63648;-50
2023/12/18 06:24:53;;;;;;;5.00;4.30;;;;;;;-147.86;100.00;46100.63;105656;1260;72687;-51
2023/12/18 06:27:20;;;;;;;5.60;4.60;;;;;;;-147.86;100.00;46102.20;105580;1260;62031;-49
2023/12/18 06:29:47;;;;;;;4.90;4.30;;;;;;;-147.86;100.00;46103.77;105590;1258;60642;-50
2023/12/18 06:32:14;;;;;;;4.90;4.40;;;;;;;-147.86;100.00;46105.34;105587;1258;73976;-53
2023/12/18 06:34:43;;;;;;;7.60;4.80;;;;;;;-147.86;100.00;46103.38;105552;1262;64573;-51
2023/12/18 06:37:10;;;;;;;4.50;4.10;;;;;;;-147.86;100.00;46101.02;105627;1260;71442;-53
2023/12/18 06:39:37;;;;;;;7.30;5.20;;;;;;;-147.86;100.00;46102.20;105573;1260;60829;-52
2023/12/18 06:42:04;;;;;;;7.30;4.40;;;;;;;-147.86;100.00;46101.02;105614;1257;60453;-49
2023/12/18 06:44:31;;;;;;;4.50;4.10;;;;;;;-147.86;100.00;46101.80;105628;1260;73794;-46
2023/12/18 06:46:58;;;;;;;6.40;4.80;;;;;;;-147.86;100.00;46100.63;105578;1260;64633;-52
2023/12/18 06:49:25;;;;;;;4.70;4.30;;;;;;;-147.86;100.00;46101.02;105578;1260;72575;-49
2023/12/18 06:51:52;;;;;;;5.40;4.80;;;;;;;-147.86;100.00;46102.59;105616;1260;62014;-51
2023/12/18 06:54:19;;;;;;;5.40;4.40;;;;;;;-147.86;100.00;46097.10;105633;1260;60399;-55
2023/12/18 06:56:46;;;;;;;7.50;5.30;;;;;;;-147.86;100.00;46099.46;105569;1262;73741;-49
2023/12/18 06:59:13;;;;;;;5.30;4.80;;;;;;;-147.86;100.00;46100.63;105610;1260;63666;-55
2023/12/18 07:01:39;;;;;;;6.50;4.90;;;;;;;-147.86;100.00;46099.06;105643;1260;72742;-52
2023/12/18 07:04:07;;;;;;;6.30;4.90;;;;;;;-147.86;100.00;46099.85;105656;1258;62171;-52
2023/12/18 07:06:34;;;;;;;6.20;5.00;;;;;;;-147.86;100.00;46099.84;105624;1258;60536;-49
2023/12/18 07:09:01;;;;;;;6.00;4.80;;;;;;;-147.86;100.00;46101.02;105625;1259;73851;-51
2023/12/18 07:11:28;;;;;;;6.60;5.40;;;;;;;-147.86;100.00;46099.85;105627;1260;64487;-51
2023/12/18 07:13:55;;;;;;;5.50;5.00;;;;;;;-147.86;100.00;46100.63;105622;1260;72661;-51
2023/12/18 07:16:22;;;;;;;6.00;5.30;;;;;;;-147.86;100.00;46099.46;105652;1262;61849;-53
2023/12/18 07:18:49;;;;;;;7.60;5.30;;;;;;;-147.86;100.00;46100.24;105632;1257;60540;-50
2023/12/18 07:21:16;;;;;;;7.90;5.40;;;;;;;-147.86;100.00;46099.06;105578;1257;73794;-49
2023/12/18 07:23:43;;;;;;;7.10;5.70;;;;;;;-147.86;100.00;46097.49;105639;1260;65430;-50
2023/12/18 07:26:12;;;;;;;9.00;5.70;;;;;;;-147.86;100.00;46098.28;105878;1255;72493;-51
2023/12/18 07:28:40;;;;;;;5.90;5.20;;;;;;;-147.86;100.00;46098.28;105888;1257;62178;-51
2023/12/18 07:31:07;;;;;;;8.00;6.00;;;;;;;-147.86;100.00;46100.24;105901;1254;60985;-51
2023/12/18 07:33:35;;;;;;;9.00;5.40;;;;;;;-147.86;100.00;46100.63;105873;1257;75641;-49
2023/12/18 07:36:03;;;;;;;8.80;5.80;;;;;;;-147.86;100.00;46099.85;105923;1256;64580;-49
2023/12/18 07:38:30;;;;;;;6.20;5.40;;;;;;;-147.86;100.00;46099.46;105902;1254;72611;-50
2023/12/18 07:40:57;;;;;;;6.40;5.50;;;;;;;-147.86;100.00;46099.46;105898;1256;61823;-49
2023/12/18 07:43:24;;;;;;;7.50;5.90;;;;;;;-147.86;100.00;46099.45;105884;1252;60491;-49
2023/12/18 07:45:51;;;;;;;7.50;5.90;;;;;;;-147.86;100.00;46099.46;105903;1256;75546;-54
2023/12/18 07:48:21;;;;;;;7.10;6.00;;;;;;;-147.86;100.00;46099.46;105931;1256;66188;-49
2023/12/18 07:50:48;;;;;;;8.20;5.90;;;;;;;-147.86;100.00;46098.67;105907;1255;72604;-47
2023/12/18 07:53:16;;;;;;;8.90;6.30;;;;;;;-147.86;100.00;46099.06;105840;1254;60563;-51
2023/12/18 07:55:43;;;;;;;7.90;6.00;;;;;;;-147.86;100.00;46099.45;105924;1254;60411;-52
2023/12/18 07:58:10;;;;;;;10.60;6.10;;;;;;;-147.86;100.00;46099.45;105874;1252;73712;-52
2023/12/18 08:00:38;;;;;;;7.40;6.10;;;;;;;-147.86;100.00;46099.84;105866;1256;64725;-50
2023/12/18 08:03:05;;;;;;;7.60;6.40;;;;;;;-147.86;100.00;46099.45;105962;1257;72740;-53
2023/12/18 08:05:32;;;;;;;8.10;6.50;;;;;;;-147.86;100.00;46101.80;105861;1256;62005;-52
2023/12/18 08:08:00;;;;;;;8.30;6.70;;;;;;;-147.86;100.00;46096.71;105863;1254;60562;-49
2023/12/18 08:10:26;;;;;;;9.70;7.50;;;;;;;-147.86;100.00;46097.89;105920;1254;73787;-53
2023/12/18 08:12:53;;;;;;;11.20;8.20;;;;;;;-147.86;100.00;46095.93;105883;1256;64555;-55
2023/12/18 08:15:20;;;;;;;11.60;8.20;;;;;;;-147.86;100.00;46097.10;105887;1254;72587;-50
2023/12/18 08:17:47;;;;;;;13.00;9.20;;;;;;;-147.86;100.00;46097.49;105926;1254;61906;-52
2023/12/18 08:20:15;;;;;;;13.00;8.50;;;;;;;-147.86;100.00;46098.68;105890;1256;60440;-51
2023/12/18 08:22:43;;;;;;;16.10;8.60;;;;;;;-147.86;100.00;46097.50;105911;1256;75487;-46
2023/12/18 08:25:10;;;;;;;15.90;9.40;;;;;;;-147.86;100.00;46099.06;105885;1256;66003;-54
2023/12/18 08:27:37;;;;;;;14.60;8.90;;;;;;;-147.86;100.00;46099.06;105849;1257;72755;-52
2023/12/18 08:30:09;;;;;;;14.60;9.30;;;;;;;-147.86;100.00;46099.85;105863;1257;61929;-52
2023/12/18 08:32:37;;;;;;;14.20;9.30;;;;;;;-147.86;100.00;46099.46;105880;1253;61684;-49
2023/12/18 08:35:06;;;;;;;14.50;10.20;;;;;;;-147.86;100.00;46097.50;105846;1256;73895;-56
2023/12/18 08:37:32;;;;;;;15.30;10.20;;;;;;;-147.86;100.00;46098.67;105895;1255;63711;-54
2023/12/18 08:39:59;;;;;;;13.80;9.70;;;;;;;-147.86;100.00;46099.45;105914;1254;71633;-53
2023/12/18 08:42:26;;;;;;;17.50;10.70;;;;;;;-147.86;100.00;46097.49;105932;1257;62020;-58
2023/12/18 08:44:53;;;;;;;18.60;10.30;;;;;;;-147.86;100.00;46101.02;105565;1257;60510;-54
2023/12/18 08:47:23;;;;;;;18.30;11.00;;;;;;;-147.86;100.00;46097.89;105560;1256;73862;-55
2023/12/18 08:49:50;;;;;;;16.20;10.80;;;;;;;-147.86;100.00;46097.11;105829;1257;64747;-53
2023/12/18 08:52:17;;;;;;;16.10;10.40;;;;;;;-147.86;100.00;46100.24;105880;1254;72614;-52
2023/12/18 08:54:44;;;;;;;18.40;11.50;;;;;;;-147.86;100.00;46099.46;105876;1257;61951;-50
2023/12/18 08:57:12;;;;;;;16.30;10.90;;;;;;;-147.86;100.00;46098.68;105877;1254;60459;-52
2023/12/18 08:59:39;;;;;;;18.60;11.80;;;;;;;-147.86;100.00;46098.28;105901;1254;75474;-50
2023/12/18 09:02:06;;;;;;;17.70;11.60;;;;;;;-147.86;100.00;46100.24;105871;1254;66217;-48
2023/12/18 09:04:33;;;;;;;17.60;11.00;;;;;;;-147.86;100.00;46100.24;105862;1257;72671;-53
2023/12/18 09:07:01;;;;;;;14.40;10.10;;;;;;;-147.86;100.00;46100.63;105872;1256;63510;-50
2023/12/18 09:09:28;;;;;;;18.10;11.10;;;;;;;-147.86;100.00;46098.67;105851;1254;62008;-53
2023/12/18 09:11:55;;;;;;;18.70;11.50;;;;;;;-147.86;100.00;46098.28;105865;1256;73777;-53
2023/12/18 09:14:22;;;;;;;17.80;11.60;;;;;;;-147.86;100.00;46099.06;105935;1257;64678;-54
2023/12/18 09:16:49;;;;;;;18.60;11.30;;;;;;;-147.86;100.00;46100.63;105834;1254;72595;-52
2023/12/18 09:19:16;;;;;;;16.00;10.70;;;;;;;-147.86;100.00;46100.63;105843;1257;61952;-55
2023/12/18 09:21:43;;;;;;;16.80;11.00;;;;;;;-147.86;100.00;46101.80;105899;1254;63174;-54
2023/12/18 09:24:11;;;;;;;18.90;11.30;;;;;;;-147.86;100.00;46100.24;105994;1257;75143;-54
2023/12/18 09:26:38;;;;;;;18.60;10.40;;;;;;;-147.86;100.00;46101.41;105894;1257;64543;-50
2023/12/18 09:29:05;;;;;;;20.00;10.80;;;;;;;-147.86;100.00;46102.20;105902;1254;74284;-48
2023/12/18 09:31:32;;;;;;;16.40;11.00;;;;;;;-147.86;100.00;46100.63;105847;1257;61910;-51
2023/12/18 09:33:59;;;;;;;16.60;10.60;;;;;;;-147.86;100.00;46101.41;105940;1254;62020;-50
2023/12/18 09:36:27;;;;;;;20.20;11.90;;;;;;;-147.86;100.00;46101.41;105911;1256;75582;-53
2023/12/18 09:38:54;;;;;;;21.10;11.20;;;;;;;-147.86;100.00;46102.20;105847;1257;64747;-52
2023/12/18 09:41:25;;;;;;;16.80;11.20;;;;;;;-147.86;100.00;46101.41;105850;1254;74440;-54
2023/12/18 09:43:53;;;;;;;20.30;11.40;;;;;;;-147.86;100.00;46099.07;105853;1257;63761;-52
2023/12/18 09:46:25;;;;;;;23.30;12.10;;;;;;;-147.86;100.00;46101.41;105855;1253;62000;-53
2023/12/18 09:48:52;;;;;;;22.90;12.00;;;;;;;-147.86;100.00;46102.20;105840;1254;73805;-51
2023/12/18 09:51:23;;;;;;;19.70;12.40;;;;;;;-147.86;100.00;46099.85;105892;1257;66112;-50
2023/12/18 09:53:54;;;;;;;22.90;12.80;;;;;;;-147.86;100.00;46102.20;105854;1254;72580;-53
2023/12/18 09:56:22;;;;;;;18.40;11.70;;;;;;;-147.86;100.00;46101.41;105872;1256;61772;-54
2023/12/18 09:58:49;;;;;;;20.20;11.90;;;;;;;-147.86;100.00;46102.59;105897;1253;62159;-51
2023/12/18 10:01:16;;;;;;;21.10;12.30;;;;;;;-147.86;100.00;46101.02;105676;1259;73741;-51
2023/12/18 10:03:43;;;;;;;21.70;12.40;;;;;;;-147.86;100.00;46103.37;105696;1260;65242;-54
2023/12/18 10:06:11;;;;;;;24.40;11.30;;;;;;;-147.86;100.00;46102.59;105882;1257;72498;-50
2023/12/18 10:08:38;;;;;;;19.70;12.60;;;;;;;-147.86;100.00;46103.77;105814;1253;63552;-49
2023/12/18 10:11:05;;;;;;;19.90;12.30;;;;;;;-147.86;100.00;46102.59;105604;1255;60450;-54
2023/12/18 10:13:34;;;;;;;20.10;12.10;;;;;;;-147.86;100.00;46104.94;105688;1260;76128;-50
2023/12/18 10:16:02;;;;;;;19.50;12.60;;;;;;;-147.86;100.00;46104.55;105827;1257;66542;-52
2023/12/18 10:18:29;;;;;;;19.40;12.40;;;;;;;-147.86;100.00;46103.77;105866;1257;74441;-50
2023/12/18 10:20:56;;;;;;;18.50;11.50;;;;;;;-147.86;100.00;46102.98;105682;1256;61879;-53
2023/12/18 10:23:24;;;;;;;18.40;11.40;;;;;;;-147.86;100.00;46103.38;105877;1254;62113;-52
2023/12/18 10:25:51;;;;;;;18.10;11.90;;;;;;;-147.86;100.00;46103.38;105895;1257;74432;-51
2023/12/18 10:28:18;;;;;;;18.40;12.00;;;;;;;-147.86;100.00;46104.95;105921;1254;63528;-54
2023/12/18 10:30:46;;;;;;;21.00;12.60;;;;;;;-147.86;100.00;46103.38;105838;1255;74017;-57
2023/12/18 10:33:13;;;;;;;25.70;13.60;;;;;;;-147.86;100.00;46104.16;105926;1256;63789;-56
2023/12/18 10:35:41;;;;;;;20.30;12.60;;;;;;;-147.86;100.00;46103.76;105701;1254;60892;-54
2023/12/18 10:38:09;;;;;;;20.50;12.80;;;;;;;-147.86;100.00;46104.55;105847;1254;75151;-55
2023/12/18 10:40:36;;;;;;;23.30;14.10;;;;;;;-147.86;100.00;46104.94;105908;1255;66378;-53
2023/12/18 10:43:10;;;;;;;26.30;14.50;;;;;;;-147.86;100.00;46106.51;105709;1254;74204;-53
2023/12/18 10:45:37;;;;;;;28.80;14.90;;;;;;;-147.86;100.00;46106.90;105863;1256;62293;-54
2023/12/18 10:48:04;;;;;;;24.90;14.70;;;;;;;-147.86;100.00;46106.12;105936;1254;61565;-51
2023/12/18 10:50:31;;;;;;;23.90;13.50;;;;;;;-147.86;100.00;46106.90;105922;1254;75441;-53
2023/12/18 10:52:59;;;;;;;25.60;14.50;;;;;;;-147.86;100.00;46104.94;105648;1255;66515;-53